Terminal Aerodrome Forecast
Issued by NWS Grand Forks, ND

Home | Current Version | Previous Version | Text Only | Print | Product List | Glossary Off
Versions: 1 2 3 4 5 6 7 8 9 10 11 12 13 14 15 16

000
FTUS43 KFGF 221125
TAFFAR
TAF
KFAR 221125Z 2212/2312 VRB06KT P6SM SCT100 BKN200
     FM221900 28015G23KT P6SM FEW200
     FM230600 29011KT P6SM SCT130
     FM230900 30011KT P6SM BKN060=

USA.gov is the U.S. government's official web portal to all federal, state and local government web resources and services.